Terminal Aerodrome Forecast
Issued by NWS

Current Version | Previous Version | Text Only | Print | Product List | Glossary On
Versions: 1 2 3 4 5 6 7 8 9 10 11 12 13 14 15 16 17 18 19 20 21 22 23
269
FTUS43 KGRR 300853 AAA
TAFAZO
TAF AMD
KAZO 300853Z 3009/3106 06010KT P6SM -SHRA OVC040
      TEMPO 3009/3012 3SM -TSRA BR OVC025CB
     FM301200 07013G20KT 1 1/2SM RA BR OVC008
     FM302000 09010G18KT 2SM BR VCTS OVC004CB
     FM310200 06006KT 2SM -DZ BR OVC003=

USA.gov is the U.S. government's official web portal to all federal, state and local government web resources and services.